Time;durP1;ratioP1;P1;durP2;ratioP2;P2;SDS_P1;SDS_P2;PMS_P1;PMS_P2;Temp;Humidity;BMP_temperature;BMP_pressure;BME280_temperature;BME280_humidity;BME280_pressure;Samples;Min_cycle;Max_cycle;Signal;HPM_P1;HPM_P2
2022/01/11 00:00:42;;;;;;;33.58;18.17;;;3.00;99.90;;;;;;4968016;28;20042;-80
2022/01/11 00:03:33;;;;;;;35.90;19.70;;;3.00;99.90;;;;;;4985091;28;20038;-79
2022/01/11 00:09:38;;;;;;;33.97;19.15;;;2.90;99.90;;;;;;5001409;28;20057;-80
2022/01/11 00:12:06;;;;;;;34.70;19.48;;;2.90;99.90;;;;;;5001426;28;20104;-80
2022/01/11 00:14:34;;;;;;;;;;;2.90;99.90;;;;;;4989119;28;20037;-79
2022/01/11 00:17:03;;;;;;;34.35;18.90;;;2.80;99.90;;;;;;5003638;28;19918;-79
2022/01/11 00:19:29;;;;;;;40.10;20.60;;;2.80;99.90;;;;;;4987894;28;20301;-80
2022/01/11 00:22:18;;;;;;;36.15;19.98;;;2.90;99.90;;;;;;5005970;28;20018;-80
2022/01/11 00:24:44;;;;;;;37.60;19.95;;;2.80;99.90;;;;;;5005648;28;20034;-79
2022/01/11 00:27:11;;;;;;;39.47;21.25;;;2.80;99.90;;;;;;5008628;28;20383;-80
2022/01/11 00:29:42;;;;;;;38.03;19.23;;;2.80;99.90;;;;;;4988494;28;20092;-81
2022/01/11 00:32:22;;;;;;;37.15;19.33;;;2.70;99.90;;;;;;4966779;28;20061;-80
2022/01/11 00:34:52;;;;;;;36.67;19.20;;;2.70;99.90;;;;;;5005555;28;20034;-80
2022/01/11 00:37:20;;;;;;;37.22;20.15;;;2.70;99.90;;;;;;4987834;28;20030;-80
2022/01/11 00:39:46;;;;;;;37.58;19.88;;;2.80;99.90;;;;;;5005723;28;20026;-80
2022/01/11 00:42:14;;;;;;;33.63;18.73;;;2.80;99.90;;;;;;5004302;28;20026;-80
2022/01/11 00:44:40;;;;;;;35.38;19.48;;;2.80;99.90;;;;;;4988090;28;20026;-79
2022/01/11 00:47:06;;;;;;;40.22;20.58;;;2.80;99.90;;;;;;4986997;28;20050;-81
2022/01/11 00:49:35;;;;;;;37.30;21.02;;;2.90;99.90;;;;;;4971883;28;20050;-80
2022/01/11 00:52:01;;;;;;;42.97;20.95;;;2.80;99.90;;;;;;4983740;28;20026;-79
2022/01/11 00:54:27;;;;;;;35.25;19.42;;;2.80;99.90;;;;;;5004376;28;20042;-80
2022/01/11 00:56:53;;;;;;;37.30;20.50;;;2.80;99.90;;;;;;4987653;28;20034;-79
2022/01/11 00:59:18;;;;;;;35.33;20.83;;;2.80;99.90;;;;;;5003663;28;20045;-79
2022/01/11 01:01:44;;;;;;;37.25;19.75;;;2.80;99.90;;;;;;4990335;28;20278;-79
2022/01/11 01:04:10;;;;;;;36.67;19.65;;;2.80;99.90;;;;;;4984891;28;20233;-80
2022/01/11 01:06:39;;;;;;;37.15;20.73;;;2.80;99.90;;;;;;4985401;28;20093;-80
2022/01/11 01:09:06;;;;;;;39.30;20.05;;;2.80;99.90;;;;;;4968168;28;20034;-79
2022/01/11 01:11:37;;;;;;;41.05;20.33;;;2.80;99.90;;;;;;4969081;28;20039;-80
2022/01/11 01:14:03;;;;;;;40.95;20.40;;;2.80;99.90;;;;;;5004462;28;20049;-80
2022/01/11 01:16:29;;;;;;;34.60;20.40;;;2.90;99.90;;;;;;5004323;28;20034;-80
2022/01/11 01:19:02;;;;;;;40.47;21.05;;;2.80;99.90;;;;;;5003664;28;20084;-80
2022/01/11 01:21:30;;;;;;;42.20;20.38;;;2.80;99.90;;;;;;4986319;28;20069;-79
2022/01/11 01:23:55;;;;;;;32.75;20.40;;;2.80;99.90;;;;;;4962286;28;20090;-80
2022/01/11 01:26:21;;;;;;;37.20;20.83;;;2.80;99.90;;;;;;4947240;29;20050;-79
2022/01/11 01:28:50;;;;;;;37.83;19.38;;;2.80;99.90;;;;;;4947682;29;20039;-80
2022/01/11 01:31:16;;;;;;;37.75;20.10;;;2.80;99.90;;;;;;4947008;29;20047;-80
2022/01/11 01:33:42;;;;;;;35.83;20.27;;;2.80;99.90;;;;;;4935597;29;20091;-79
2022/01/11 01:36:11;;;;;;;39.63;20.67;;;2.80;99.90;;;;;;4928197;29;20043;-80
2022/01/11 01:38:38;;;;;;;38.00;19.88;;;2.80;99.90;;;;;;4928242;29;20349;-79
2022/01/11 01:41:16;;;;;;;36.60;20.08;;;2.80;99.90;;;;;;4944148;29;20062;-80
2022/01/11 01:43:43;;;;;;;38.73;20.17;;;2.80;99.90;;;;;;4928479;29;20039;-80
2022/01/11 01:46:09;;;;;;;37.88;21.48;;;2.70;99.90;;;;;;4944041;29;20028;-80
2022/01/11 01:48:36;;;;;;;35.67;20.10;;;2.70;99.90;;;;;;4943982;29;20028;-79
2022/01/11 01:51:03;;;;;;;36.35;20.42;;;2.70;99.90;;;;;;4944062;29;20192;-79
2022/01/11 01:53:34;;;;;;;39.45;21.13;;;2.70;99.90;;;;;;4943321;29;20035;-79
2022/01/11 01:56:00;;;;;;;37.55;19.92;;;2.70;99.90;;;;;;5001959;28;20117;-79
2022/01/11 01:58:26;;;;;;;35.53;20.08;;;2.70;99.90;;;;;;4985958;28;20045;-78
2022/01/11 02:00:55;;;;;;;38.30;19.95;;;2.70;99.90;;;;;;5002470;28;20030;-78
2022/01/11 02:03:26;;;;;;;38.08;20.77;;;2.70;99.90;;;;;;4969867;28;20025;-79
2022/01/11 02:05:54;;;;;;;38.38;20.77;;;2.70;99.90;;;;;;4986434;28;20042;-79
2022/01/11 02:08:20;;;;;;;;;;;2.60;99.90;;;;;;5002607;28;20081;-79
2022/01/11 02:10:47;;;;;;;37.97;20.75;;;2.60;99.90;;;;;;4986528;28;19956;-78
2022/01/11 02:20:56;;;;;;;40.25;21.50;;;2.60;99.90;;;;;;5003476;28;20047;-79
2022/01/11 02:23:28;;;;;;;41.70;21.65;;;2.50;99.90;;;;;;4982138;28;20109;-79
2022/01/11 02:25:54;;;;;;;38.92;21.27;;;2.50;99.90;;;;;;4982803;28;20126;-79
2022/01/11 02:28:26;;;;;;;39.47;20.40;;;2.50;99.90;;;;;;4983492;28;20026;-78
2022/01/11 02:30:53;;;;;;;42.00;22.08;;;2.50;99.90;;;;;;4982645;28;20029;-78
2022/01/11 02:33:46;;;;;;;42.45;22.77;;;2.50;99.90;;;;;;4966320;28;20343;-79
2022/01/11 02:36:38;;;;;;;40.28;22.70;;;2.50;99.90;;;;;;4981310;28;20057;-78
2022/01/11 02:39:24;;;;;;;45.28;21.75;;;2.50;99.90;;;;;;4982682;28;20317;-78
2022/01/11 02:41:56;;;;;;;40.13;21.02;;;2.50;99.90;;;;;;4982717;28;20357;-78
2022/01/11 02:44:35;;;;;;;40.47;21.88;;;2.40;99.90;;;;;;4982439;28;20170;-81
2022/01/11 02:47:01;;;;;;;43.42;20.85;;;2.50;99.90;;;;;;4982836;28;20042;-81
2022/01/11 02:49:32;;;;;;;38.30;20.77;;;2.40;99.90;;;;;;4982254;28;20069;-78
2022/01/11 02:52:07;;;;;;;40.75;21.23;;;2.40;99.90;;;;;;4983004;28;20026;-79
2022/01/11 02:54:33;;;;;;;40.58;21.50;;;2.40;99.90;;;;;;4982235;28;20046;-77
2022/01/11 02:57:16;;;;;;;39.28;20.50;;;2.30;99.90;;;;;;4981796;28;20324;-80
2022/01/11 02:59:43;;;;;;;38.70;21.13;;;2.40;99.90;;;;;;4982393;28;20034;-78
2022/01/11 03:02:10;;;;;;;40.38;21.77;;;2.30;99.90;;;;;;4982323;28;20030;-78
2022/01/11 03:04:37;;;;;;;39.60;20.50;;;2.30;99.90;;;;;;4981872;28;20270;-79
2022/01/11 03:07:03;;;;;;;36.95;20.00;;;2.40;99.90;;;;;;4982592;28;20027;-78
2022/01/11 03:09:48;;;;;;;43.85;22.55;;;2.40;99.90;;;;;;4966269;28;20290;-79
2022/01/11 03:12:15;;;;;;;41.20;21.23;;;2.40;99.90;;;;;;4965911;28;20031;-80
2022/01/11 03:14:41;;;;;;;40.88;21.52;;;2.40;99.90;;;;;;4983424;28;20046;-80
2022/01/11 03:17:07;;;;;;;37.33;20.45;;;2.50;99.90;;;;;;4966035;28;20115;-80
2022/01/11 03:19:34;;;;;;;44.00;20.38;;;2.60;99.90;;;;;;4981783;28;20027;-80
2022/01/11 03:22:01;;;;;;;38.07;21.77;;;2.60;99.90;;;;;;4982007;28;20221;-79
2022/01/11 03:24:26;;;;;;;37.25;21.02;;;2.50;99.90;;;;;;4996896;28;20050;-79
2022/01/11 03:26:53;;;;;;;34.65;20.35;;;2.50;99.90;;;;;;4986437;28;20034;-79
2022/01/11 03:29:18;;;;;;;37.00;20.02;;;2.60;99.90;;;;;;4969402;28;20110;-79
2022/01/11 03:31:44;;;;;;;37.10;20.45;;;2.60;99.90;;;;;;4985418;28;20027;-79
2022/01/11 03:34:17;;;;;;;39.90;20.90;;;2.70;99.90;;;;;;5002702;28;20038;-78
2022/01/11 03:36:44;;;;;;;35.65;18.60;;;2.70;99.90;;;;;;4969844;28;20308;-79
2022/01/11 03:39:10;;;;;;;33.97;20.23;;;2.70;99.90;;;;;;4985170;28;20035;-80
2022/01/11 03:41:36;;;;;;;39.20;20.88;;;2.70;99.90;;;;;;5001489;28;20041;-80
2022/01/11 03:44:03;;;;;;;37.40;19.95;;;2.70;99.90;;;;;;4985603;28;20046;-80
2022/01/11 03:46:29;;;;;;;35.38;18.52;;;2.70;99.90;;;;;;5001932;28;20071;-80
2022/01/11 03:48:55;;;;;;;38.53;20.27;;;2.70;99.90;;;;;;4988867;28;20297;-79
2022/01/11 03:51:23;;;;;;;35.95;19.15;;;2.70;99.90;;;;;;4988527;28;20098;-79
2022/01/11 03:54:01;;;;;;;35.85;19.92;;;2.70;99.90;;;;;;4988624;28;20034;-79
2022/01/11 03:56:28;;;;;;;37.10;21.48;;;2.60;99.90;;;;;;4988199;28;20305;-79
2022/01/11 03:59:08;;;;;;;37.60;20.67;;;2.50;99.90;;;;;;4973281;28;20031;-78
2022/01/11 04:05:29;;;;;;;39.47;20.80;;;2.60;99.90;;;;;;5005255;28;20070;-79
2022/01/11 04:07:55;;;;;;;37.63;21.80;;;2.50;99.90;;;;;;5005977;28;20026;-79
2022/01/11 04:10:21;;;;;;;35.35;20.17;;;2.50;99.90;;;;;;4990891;28;20033;-79
2022/01/11 04:12:49;;;;;;;36.55;21.02;;;2.50;99.90;;;;;;4989563;28;20030;-78
2022/01/11 04:15:15;;;;;;;41.50;21.90;;;2.50;99.90;;;;;;4988033;28;20217;-79
2022/01/11 04:17:40;;;;;;;39.97;21.67;;;2.50;99.90;;;;;;5004307;28;20022;-79
2022/01/11 04:20:07;;;;;;;41.03;21.88;;;2.50;99.90;;;;;;4972648;28;20034;-79
2022/01/11 04:22:33;;;;;;;36.83;21.52;;;2.50;99.90;;;;;;4988300;28;20073;-79
2022/01/11 04:25:25;;;;;;;36.38;20.40;;;2.50;99.90;;;;;;4984615;28;20042;-80
2022/01/11 04:31:33;;;;;;;37.97;21.38;;;2.40;99.90;;;;;;5061703;23;20054;-81
2022/01/11 04:33:59;;;;;;;33.97;20.67;;;2.50;99.90;;;;;;4988054;28;20030;-80
2022/01/11 04:36:27;;;;;;;36.45;19.67;;;2.40;99.90;;;;;;4987031;28;20375;-81
2022/01/11 04:38:53;;;;;;;37.78;21.35;;;2.40;99.90;;;;;;4987671;28;20033;-80
2022/01/11 04:41:19;;;;;;;36.00;20.05;;;2.40;99.90;;;;;;4971645;28;20026;-81
2022/01/11 04:43:49;;;;;;;39.05;20.98;;;2.40;99.90;;;;;;4988082;28;20194;-80
2022/01/11 04:46:18;;;;;;;38.00;21.13;;;2.50;99.90;;;;;;4987786;28;20034;-80
2022/01/11 04:48:46;;;;;;;38.25;19.30;;;2.50;99.90;;;;;;4987793;28;20032;-79
2022/01/11 04:51:12;;;;;;;40.28;22.20;;;2.50;99.90;;;;;;4987660;28;20026;-80
2022/01/11 04:53:38;;;;;;;37.50;20.90;;;2.60;99.90;;;;;;4987074;28;20252;-79
2022/01/11 04:56:05;;;;;;;37.80;21.92;;;2.70;99.90;;;;;;4986819;28;20064;-80
2022/01/11 04:58:31;;;;;;;36.50;20.63;;;2.60;99.90;;;;;;4988074;28;20033;-79
2022/01/11 05:00:57;;;;;;;38.75;21.17;;;2.70;99.90;;;;;;4987564;28;20332;-81
2022/01/11 05:03:24;;;;;;;39.90;22.35;;;2.60;99.90;;;;;;4987212;28;20032;-80
2022/01/11 05:05:55;;;;;;;42.47;21.45;;;2.60;99.90;;;;;;4987720;28;20034;-78
2022/01/11 05:08:21;;;;;;;41.38;20.52;;;2.60;99.90;;;;;;4982740;28;20046;-77
2022/01/11 05:10:49;;;;;;;36.77;21.30;;;2.60;99.90;;;;;;4963527;29;20031;-79
2022/01/11 05:13:19;;;;;;;38.70;22.02;;;2.70;99.90;;;;;;4963711;29;20385;-79
2022/01/11 05:15:46;;;;;;;35.67;20.35;;;2.70;99.90;;;;;;4931127;29;20053;-79
2022/01/11 05:18:12;;;;;;;38.83;21.45;;;2.80;99.90;;;;;;4947173;29;20039;-79
2022/01/11 05:20:39;;;;;;;36.17;20.50;;;2.70;99.90;;;;;;4947142;29;20035;-79
2022/01/11 05:23:07;;;;;;;41.63;21.13;;;2.70;99.90;;;;;;4947443;29;20070;-80
2022/01/11 05:25:34;;;;;;;38.60;20.50;;;2.70;99.90;;;;;;4947067;29;20047;-80
2022/01/11 05:28:00;;;;;;;38.67;22.00;;;2.70;99.90;;;;;;4931639;29;20035;-80
2022/01/11 05:30:27;;;;;;;38.13;21.38;;;2.70;99.90;;;;;;4962515;29;20368;-80
2022/01/11 05:32:53;;;;;;;35.50;20.08;;;2.70;99.90;;;;;;4947511;29;20042;-80
2022/01/11 05:35:21;;;;;;;33.97;20.45;;;2.70;99.90;;;;;;4947204;29;20051;-80
2022/01/11 05:37:48;;;;;;;37.15;21.02;;;2.70;99.90;;;;;;4946407;29;20119;-80
2022/01/11 05:40:16;;;;;;;36.95;20.48;;;2.80;99.90;;;;;;4947235;29;20031;-80
2022/01/11 05:42:43;;;;;;;37.55;20.95;;;2.80;99.90;;;;;;4964100;28;20030;-80
2022/01/11 05:45:10;;;;;;;41.03;21.17;;;2.70;99.90;;;;;;4950433;28;20034;-80
2022/01/11 05:47:36;;;;;;;38.55;21.48;;;2.80;99.90;;;;;;4982392;28;20090;-78
2022/01/11 05:50:05;;;;;;;38.08;21.33;;;2.80;99.90;;;;;;4950385;28;20027;-79
2022/01/11 05:52:31;;;;;;;37.90;20.08;;;2.80;99.90;;;;;;4982156;28;20112;-79
2022/01/11 05:54:57;;;;;;;43.47;21.45;;;2.90;99.90;;;;;;4950141;28;20050;-79
2022/01/11 06:02:04;;;;;;;38.78;20.67;;;2.80;99.90;;;;;;4903689;29;20035;-79
2022/01/11 06:04:29;;;;;;;34.83;19.95;;;2.70;99.90;;;;;;4890307;29;20033;-81
2022/01/11 06:06:58;;;;;;;43.28;20.98;;;2.70;99.90;;;;;;4905995;29;20061;-79
2022/01/11 06:09:26;;;;;;;40.20;21.48;;;2.70;99.90;;;;;;4948248;28;20071;-80
2022/01/11 06:11:55;;;;;;;42.50;21.80;;;2.70;99.90;;;;;;4962855;29;20314;-79
2022/01/11 06:15:11;;;;;;;42.17;21.13;;;2.70;99.90;;;;;;4962576;29;20265;-80
2022/01/11 06:17:37;;;;;;;40.17;20.58;;;2.70;99.90;;;;;;4961161;29;20042;-81
2022/01/11 06:20:05;;;;;;;39.17;22.10;;;2.70;99.90;;;;;;4962541;29;20071;-81
2022/01/11 06:22:32;;;;;;;36.83;21.08;;;2.80;99.90;;;;;;4930229;29;20053;-80
2022/01/11 06:25:03;;;;;;;43.30;21.95;;;2.70;99.90;;;;;;4930779;29;20031;-79
2022/01/11 06:27:30;;;;;;;35.78;19.58;;;2.70;99.90;;;;;;4930566;29;20039;-81
2022/01/11 06:29:56;;;;;;;37.70;21.13;;;2.70;99.90;;;;;;4946310;29;20274;-80
2022/01/11 06:32:22;;;;;;;35.42;19.45;;;2.80;99.90;;;;;;4961950;28;20038;-79
2022/01/11 06:34:48;;;;;;;40.28;22.52;;;2.80;99.90;;;;;;4929930;29;20375;-79
2022/01/11 06:37:15;;;;;;;37.45;20.80;;;2.80;99.90;;;;;;4946292;29;20250;-79
2022/01/11 06:39:45;;;;;;;34.25;19.85;;;2.70;99.90;;;;;;4961823;29;20282;-80
2022/01/11 06:42:11;;;;;;;40.17;21.20;;;2.80;99.90;;;;;;4936291;28;20038;-80
2022/01/11 06:44:38;;;;;;;39.92;22.08;;;2.70;99.90;;;;;;4981740;28;20022;-80
2022/01/11 06:47:06;;;;;;;37.80;21.45;;;2.60;99.90;;;;;;4965839;28;20321;-80
2022/01/11 06:49:32;;;;;;;42.60;22.05;;;2.60;99.90;;;;;;4981826;28;20118;-80
2022/01/11 06:51:57;;;;;;;42.97;22.27;;;2.60;99.90;;;;;;4982036;28;20026;-80
2022/01/11 06:54:24;;;;;;;39.92;20.55;;;2.60;99.90;;;;;;4966087;28;20026;-79
2022/01/11 06:56:50;;;;;;;39.42;22.05;;;2.60;99.90;;;;;;4981834;28;20034;-79
2022/01/11 06:59:16;;;;;;;35.60;20.95;;;2.60;99.90;;;;;;4982412;28;20372;-80
2022/01/11 07:01:42;;;;;;;39.03;21.35;;;2.60;99.90;;;;;;4963192;28;20058;-80
2022/01/11 07:04:21;;;;;;;38.40;21.25;;;2.60;99.90;;;;;;4968188;28;20022;-80
2022/01/11 07:06:53;;;;;;;40.72;22.50;;;2.60;99.90;;;;;;4970578;28;20035;-79
2022/01/11 07:09:19;;;;;;;44.00;22.63;;;2.60;99.90;;;;;;4981987;28;20040;-80
2022/01/11 07:11:45;;;;;;;41.80;23.65;;;2.50;99.90;;;;;;4966411;28;20031;-80
2022/01/11 07:14:11;;;;;;;42.17;21.85;;;2.60;99.90;;;;;;4965296;28;20018;-79
2022/01/11 07:17:02;;;;;;;42.38;22.48;;;2.60;99.90;;;;;;4965082;28;20409;-79
2022/01/11 07:19:29;;;;;;;43.10;22.27;;;2.60;99.90;;;;;;4962250;29;20125;-80
2022/01/11 07:21:59;;;;;;;45.78;23.05;;;2.60;99.90;;;;;;4963822;28;20102;-79
2022/01/11 07:24:33;;;;;;;36.15;20.42;;;2.70;99.90;;;;;;4966437;28;20042;-78
2022/01/11 07:26:59;;;;;;;42.85;22.65;;;2.70;99.90;;;;;;4966415;29;20058;-78
2022/01/11 07:29:25;;;;;;;39.55;22.90;;;2.80;99.90;;;;;;4968368;28;20035;-80
2022/01/11 07:31:52;;;;;;;42.80;22.63;;;2.80;99.90;;;;;;4968682;28;20045;-79
2022/01/11 07:34:19;;;;;;;39.75;22.00;;;2.80;99.90;;;;;;4970032;28;20026;-78
2022/01/11 07:36:46;;;;;;;41.67;22.35;;;2.80;99.90;;;;;;4952088;29;20337;-80
2022/01/11 07:39:12;;;;;;;36.08;21.52;;;2.80;99.90;;;;;;4966097;29;20102;-79
2022/01/11 07:41:40;;;;;;;40.30;22.63;;;2.80;99.90;;;;;;4981976;28;20027;-79
2022/01/11 07:44:38;;;;;;;38.92;21.42;;;2.90;99.90;;;;;;4948886;29;20042;-80
2022/01/11 07:47:05;;;;;;;41.97;22.85;;;2.80;99.90;;;;;;4965440;29;20039;-81
2022/01/11 07:49:35;;;;;;;40.25;22.20;;;2.90;99.90;;;;;;4965142;29;20031;-80
2022/01/11 07:52:02;;;;;;;38.05;22.17;;;2.90;99.90;;;;;;4981933;28;20228;-80
2022/01/11 08:10:53;;;;;;;36.53;19.98;;;3.20;99.90;;;;;;5598040;23;20050;-79
2022/01/11 08:13:20;;;;;;;37.03;20.03;;;3.10;99.90;;;;;;4953110;28;20030;-79
2022/01/11 08:15:46;;;;;;;42.92;21.38;;;3.20;99.90;;;;;;4961590;28;20047;-78
2022/01/11 08:18:12;;;;;;;37.25;20.08;;;3.20;99.90;;;;;;4949402;29;20039;-79
2022/01/11 08:33:25;;;;;;;40.10;20.42;;;3.40;99.90;;;;;;5384893;23;20051;-79
2022/01/11 08:35:52;;;;;;;35.65;20.17;;;3.40;99.90;;;;;;4945586;29;20042;-78
2022/01/11 08:38:20;;;;;;;;;;;3.40;99.90;;;;;;4915992;29;20164;-79
2022/01/11 08:40:52;;;;;;;34.45;20.13;;;3.50;99.90;;;;;;4945421;29;20075;-79
2022/01/11 08:43:31;;;;;;;40.92;21.15;;;3.60;99.90;;;;;;4945189;29;20032;-79
2022/01/11 08:45:57;;;;;;;37.90;21.42;;;3.70;99.90;;;;;;4952312;29;20094;-79
2022/01/11 08:48:23;;;;;;;34.92;20.40;;;3.80;99.90;;;;;;4966157;29;20086;-78
2022/01/11 08:51:20;;;;;;;34.53;20.25;;;3.90;99.90;;;;;;4965031;29;20035;-79
2022/01/11 08:53:48;;;;;;;33.80;19.40;;;3.90;99.90;;;;;;4963882;29;20098;-78
2022/01/11 08:56:17;;;;;;;38.22;20.30;;;3.90;99.90;;;;;;4964639;29;20034;-77
2022/01/11 08:58:46;;;;;;;37.40;20.35;;;4.00;99.90;;;;;;4980203;28;20023;-79
2022/01/11 09:01:17;;;;;;;33.85;19.23;;;4.10;99.90;;;;;;4964209;28;20059;-79
2022/01/11 09:03:44;;;;;;;30.88;18.25;;;4.20;99.90;;;;;;4979977;28;20034;-78
2022/01/11 09:06:10;;;;;;;37.72;19.67;;;4.20;99.90;;;;;;4955158;28;20019;-78
2022/01/11 09:08:38;;;;;;;30.45;17.10;;;4.10;99.90;;;;;;4982987;28;20101;-78
2022/01/11 09:11:06;;;;;;;29.48;17.67;;;4.20;99.90;;;;;;4967768;28;20110;-79
2022/01/11 09:13:34;;;;;;;32.72;18.35;;;4.20;99.90;;;;;;4983271;28;20069;-79
2022/01/11 09:16:04;;;;;;;32.90;18.15;;;4.30;99.90;;;;;;4967036;28;20302;-80
2022/01/11 09:18:30;;;;;;;33.13;17.63;;;4.40;99.90;;;;;;4983394;28;20031;-79
2022/01/11 09:21:00;;;;;;;33.63;18.65;;;4.50;99.90;;;;;;4967758;28;20023;-79
2022/01/11 09:23:31;;;;;;;36.45;18.70;;;4.50;99.90;;;;;;4967593;28;20258;-79
2022/01/11 09:25:57;;;;;;;32.03;17.50;;;4.40;99.90;;;;;;4983195;28;20038;-79
2022/01/11 09:28:24;;;;;;;34.53;17.83;;;4.40;99.90;;;;;;4983912;28;20057;-78
2022/01/11 09:30:50;;;;;;;30.58;17.40;;;4.40;99.90;;;;;;4982339;28;20122;-78
2022/01/11 09:33:17;;;;;;;33.75;18.20;;;4.40;99.90;;;;;;4983143;28;20054;-79
2022/01/11 09:35:44;;;;;;;29.88;18.23;;;4.40;99.90;;;;;;4982772;28;20049;-79
2022/01/11 09:38:15;;;;;;;34.20;17.75;;;4.40;99.90;;;;;;4968882;28;20312;-80
2022/01/11 09:40:43;;;;;;;33.97;17.80;;;4.40;99.90;;;;;;4986845;28;20257;-79
2022/01/11 09:43:11;;;;;;;32.97;17.98;;;4.40;99.90;;;;;;4983801;28;20030;-81
2022/01/11 09:45:37;;;;;;;31.02;18.67;;;4.50;99.90;;;;;;4981889;28;20038;-80
2022/01/11 09:48:05;;;;;;;33.72;18.67;;;4.70;99.90;;;;;;4983435;28;20041;-79
2022/01/11 09:50:35;;;;;;;33.80;18.45;;;4.70;99.90;;;;;;4982881;28;20046;-79
2022/01/11 09:53:04;;;;;;;32.40;18.63;;;4.80;99.90;;;;;;4967313;28;20033;-79
2022/01/11 09:55:33;;;;;;;29.38;18.42;;;4.80;99.90;;;;;;4982518;28;20122;-80
2022/01/11 09:57:59;;;;;;;31.38;17.95;;;4.70;99.90;;;;;;4983188;28;20035;-80
2022/01/11 10:00:54;;;;;;;29.10;17.75;;;4.80;99.90;;;;;;4982702;28;20103;-80
2022/01/11 10:04:01;;;;;;;29.13;17.33;;;4.80;99.90;;;;;;4982798;28;20035;-79
2022/01/11 10:06:59;;;;;;;32.28;17.15;;;4.90;99.90;;;;;;4945952;28;20035;-79
2022/01/11 10:09:29;;;;;;;29.98;17.75;;;5.00;99.90;;;;;;4963314;29;20030;-79
2022/01/11 10:11:57;;;;;;;29.52;16.77;;;5.10;99.90;;;;;;4947852;29;20031;-80
2022/01/11 10:14:32;;;;;;;;;;;5.30;99.90;;;;;;4964403;29;20042;-78
2022/01/11 10:20:46;;;;;;;30.73;17.40;;;5.30;99.90;;;;;;4964420;29;20042;-80
2022/01/11 10:30:56;;;;;;;27.85;17.23;;;5.60;99.90;;;;;;4970152;28;20331;-79
2022/01/11 10:33:22;;;;;;;30.58;17.05;;;5.80;99.90;;;;;;4936145;29;20082;-79
2022/01/11 10:35:49;;;;;;;29.38;17.52;;;5.70;99.90;;;;;;4956596;28;20042;-78
2022/01/11 10:38:35;;;;;;;25.83;15.65;;;5.80;99.90;;;;;;4960055;28;20030;-79
2022/01/11 10:41:41;;;;;;;27.37;15.87;;;5.90;99.90;;;;;;4955477;29;20043;-78
2022/01/11 10:44:08;;;;;;;27.17;15.85;;;6.10;99.90;;;;;;4946881;29;20019;-79
2022/01/11 10:46:43;;;;;;;25.90;15.38;;;6.20;99.90;;;;;;4942983;29;20040;-79
2022/01/11 10:49:28;;;;;;;27.08;15.48;;;6.30;99.90;;;;;;4954804;29;20035;-79
2022/01/11 10:52:15;;;;;;;27.27;15.07;;;6.50;99.90;;;;;;4947110;29;20035;-78
2022/01/11 10:55:12;;;;;;;27.35;15.55;;;6.50;99.90;;;;;;4962695;29;20054;-78
2022/01/11 10:57:42;;;;;;;23.42;14.45;;;6.70;99.90;;;;;;4946633;29;20027;-79
2022/01/11 11:00:09;;;;;;;26.10;14.13;;;6.70;99.90;;;;;;4962254;28;20183;-79
2022/01/11 11:02:35;;;;;;;25.63;15.20;;;6.80;99.90;;;;;;4946421;29;20246;-78
2022/01/11 11:05:18;;;;;;;24.02;14.02;;;6.90;99.90;;;;;;4963524;29;20304;-80
2022/01/11 11:08:01;;;;;;;23.05;13.43;;;7.10;99.90;;;;;;4946670;29;20167;-79
2022/01/11 11:10:31;;;;;;;25.38;14.40;;;7.00;99.90;;;;;;4963066;29;20318;-80
2022/01/11 11:12:57;;;;;;;23.25;13.77;;;6.90;99.90;;;;;;4947316;29;20094;-79
2022/01/11 11:15:34;;;;;;;28.85;14.85;;;7.10;99.90;;;;;;4962616;28;20051;-81
2022/01/11 11:18:03;;;;;;;28.55;15.30;;;7.20;99.90;;;;;;4963198;29;20038;-80
2022/01/11 11:20:35;;;;;;;24.88;15.15;;;7.10;99.90;;;;;;4964012;29;20117;-81
2022/01/11 11:23:04;;;;;;;25.83;14.95;;;7.20;99.90;;;;;;4964296;28;20320;-80
2022/01/11 11:25:30;;;;;;;29.65;15.70;;;7.20;99.90;;;;;;4962469;29;20038;-81
2022/01/11 11:27:56;;;;;;;27.10;15.90;;;7.40;99.90;;;;;;4964498;28;20035;-80
2022/01/11 11:30:22;;;;;;;23.65;14.15;;;7.40;99.90;;;;;;4963902;28;20054;-78
2022/01/11 11:32:52;;;;;;;24.27;14.13;;;7.50;99.90;;;;;;4946465;28;20270;-79
2022/01/11 11:35:18;;;;;;;24.42;15.52;;;7.50;99.90;;;;;;4962917;28;20035;-78
2022/01/11 11:37:47;;;;;;;22.98;14.80;;;7.50;99.90;;;;;;4962193;28;20074;-79
2022/01/11 11:40:19;;;;;;;24.58;14.18;;;7.50;99.90;;;;;;4964304;29;20046;-79
2022/01/11 11:42:50;;;;;;;22.63;13.88;;;7.60;99.90;;;;;;4963015;28;20306;-81
2022/01/11 11:45:24;;;;;;;21.88;12.07;;;7.90;99.90;;;;;;4962126;28;20035;-79
2022/01/11 11:47:51;;;;;;;22.52;12.38;;;8.10;99.90;;;;;;4963376;29;20150;-80
2022/01/11 11:50:22;;;;;;;19.35;12.18;;;8.00;99.90;;;;;;4963971;28;20095;-81
2022/01/11 11:52:52;;;;;;;21.40;11.77;;;8.10;99.90;;;;;;4962165;28;20224;-80
2022/01/11 11:55:27;;;;;;;18.73;10.80;;;8.10;99.90;;;;;;4962616;28;20106;-82
2022/01/11 11:57:55;;;;;;;16.23;9.60;;;8.20;99.90;;;;;;4963686;28;20023;-81
2022/01/11 12:00:30;;;;;;;16.23;9.18;;;8.30;99.90;;;;;;4962378;28;20205;-80
2022/01/11 12:02:57;;;;;;;13.60;8.13;;;8.40;99.90;;;;;;4946809;28;20106;-80
2022/01/11 12:05:39;;;;;;;31.17;8.93;;;8.90;99.90;;;;;;4963992;28;20082;-79
2022/01/11 12:08:36;;;;;;;15.07;8.23;;;9.30;99.90;;;;;;4967361;28;20423;-79
2022/01/11 12:11:39;;;;;;;17.67;8.15;;;9.10;99.90;;;;;;4971013;29;20028;-79
2022/01/11 12:14:07;;;;;;;14.45;7.40;;;9.40;99.90;;;;;;4948384;29;20073;-79
2022/01/11 12:16:39;;;;;;;13.32;7.25;;;9.50;99.90;;;;;;4966090;28;20064;-81
2022/01/11 12:19:08;;;;;;;12.55;6.85;;;9.60;99.90;;;;;;4967124;28;20318;-79
2022/01/11 12:22:07;;;;;;;10.18;6.78;;;9.40;99.90;;;;;;4966736;29;20055;-80
2022/01/11 12:24:46;;;;;;;10.35;5.68;;;9.30;99.90;;;;;;4949511;29;20078;-79
2022/01/11 12:27:21;;;;;;;11.68;6.03;;;9.30;99.90;;;;;;4949822;29;20046;-80
2022/01/11 12:30:07;;;;;;;11.82;5.97;;;9.30;99.90;;;;;;4964947;28;20062;-80
2022/01/11 12:32:54;;;;;;;12.98;6.28;;;9.20;99.90;;;;;;4966608;28;20138;-80
2022/01/11 12:35:24;;;;;;;12.07;5.30;;;8.60;99.90;;;;;;4952302;28;20045;-80
2022/01/11 12:38:04;;;;;;;8.95;5.18;;;8.30;99.90;;;;;;4968225;28;20026;-80
2022/01/11 12:40:40;;;;;;;9.13;4.80;;;8.20;99.90;;;;;;4953777;28;20030;-80
2022/01/11 12:43:42;;;;;;;9.55;4.15;;;8.30;99.90;;;;;;4955880;28;20102;-80
2022/01/11 12:46:12;;;;;;;8.57;3.85;;;8.30;99.90;;;;;;4950653;29;20253;-80
2022/01/11 12:48:44;;;;;;;6.95;4.00;;;8.00;99.90;;;;;;4968204;29;20225;-78
2022/01/11 12:51:11;;;;;;;8.25;4.22;;;8.00;99.90;;;;;;4935169;29;20261;-81
2022/01/11 12:53:37;;;;;;;8.07;4.20;;;7.90;99.90;;;;;;4934400;29;20030;-80
2022/01/11 12:56:03;;;;;;;5.45;3.50;;;7.90;99.90;;;;;;4951397;29;20039;-80
2022/01/11 12:58:29;;;;;;;7.50;3.60;;;7.90;99.90;;;;;;4935419;29;20039;-80
2022/01/11 13:00:56;;;;;;;7.85;3.33;;;7.80;99.90;;;;;;4933886;29;20325;-80
2022/01/11 13:03:22;;;;;;;9.93;3.25;;;7.60;99.90;;;;;;4935069;29;20043;-79
2022/01/11 13:05:53;;;;;;;6.00;2.88;;;7.90;99.90;;;;;;4950931;29;20278;-80
2022/01/11 13:08:29;;;;;;;3.78;2.45;;;8.10;99.90;;;;;;4985413;28;20042;-80
2022/01/11 13:10:55;;;;;;;8.45;2.88;;;8.00;99.90;;;;;;4985371;28;20309;-80
2022/01/11 13:13:25;;;;;;;8.20;2.47;;;7.70;99.90;;;;;;4952064;28;20034;-80
2022/01/11 13:15:53;;;;;;;4.95;2.38;;;7.30;99.90;;;;;;4983725;28;20050;-80
2022/01/11 13:18:20;;;;;;;4.10;2.28;;;7.40;99.90;;;;;;4967648;28;20285;-80
2022/01/11 13:20:53;;;;;;;7.60;3.10;;;7.40;99.90;;;;;;4983982;28;20073;-79
2022/01/11 13:23:29;;;;;;;7.43;2.88;;;7.50;99.90;;;;;;4952286;28;20607;-80
2022/01/11 13:25:56;;;;;;;7.45;3.60;;;7.40;99.90;;;;;;4985153;28;20058;-80
2022/01/11 13:28:36;;;;;;;7.60;3.28;;;7.20;99.90;;;;;;4951871;28;20105;-78
2022/01/11 13:31:08;;;;;;;6.78;3.55;;;7.10;99.90;;;;;;4984039;28;20368;-79
2022/01/11 13:33:40;;;;;;;5.78;3.20;;;6.90;99.90;;;;;;4984574;28;20073;-78
2022/01/11 13:36:23;;;;;;;7.22;3.15;;;7.00;99.90;;;;;;4951663;28;20046;-80
2022/01/11 13:38:52;;;;;;;7.05;3.20;;;6.90;99.90;;;;;;4951007;28;20039;-80
2022/01/11 13:41:31;;;;;;;5.45;2.83;;;6.70;99.90;;;;;;4984761;28;20046;-79
2022/01/11 13:43:59;;;;;;;8.70;3.22;;;6.60;99.90;;;;;;4984632;28;20039;-80
2022/01/11 13:46:26;;;;;;;8.85;3.10;;;6.50;99.90;;;;;;4984079;28;20105;-78
2022/01/11 13:48:53;;;;;;;6.30;2.95;;;6.50;99.90;;;;;;4967060;28;20034;-79
2022/01/11 13:51:30;;;;;;;7.00;3.03;;;6.50;99.90;;;;;;4984589;28;20313;-79
2022/01/11 13:53:59;;;;;;;5.63;3.20;;;6.30;99.90;;;;;;4967087;28;20081;-79
2022/01/11 13:56:37;;;;;;;6.78;3.25;;;6.30;99.90;;;;;;4984276;28;20035;-79
2022/01/11 13:59:06;;;;;;;;;;;6.40;99.90;;;;;;4952061;28;20041;-81
2022/01/11 14:01:32;;;;;;;6.30;2.83;;;6.30;99.90;;;;;;4949182;28;19973;-79